createdAt,value
2022-12-31T00:01:44.468Z,97978.00
2022-12-31T00:04:10.874Z,97976.16
2022-12-31T00:06:37.418Z,97977.81
2022-12-31T00:09:06.403Z,97965.09
2022-12-31T00:11:35.036Z,97971.91
2022-12-31T00:14:01.456Z,97975.44
2022-12-31T00:16:31.065Z,97966.97
2022-12-31T00:18:59.486Z,97958.31
2022-12-31T00:21:27.648Z,97962.53
2022-12-31T00:23:54.549Z,97966.69
2022-12-31T00:26:24.886Z,97971.75
2022-12-31T00:28:52.805Z,97975.09
2022-12-31T00:31:30.692Z,97976.84
2022-12-31T00:33:57.815Z,97979.16
2022-12-31T00:36:32.529Z,97986.00
2022-12-31T00:39:00.416Z,97986.84
2022-12-31T00:41:28.328Z,97976.44
2022-12-31T00:43:55.120Z,97968.66
2022-12-31T00:46:26.168Z,97973.03
2022-12-31T00:48:53.480Z,97976.34
2022-12-31T00:51:22.452Z,97981.34
2022-12-31T00:53:48.827Z,97995.03
2022-12-31T00:56:18.296Z,98001.94
2022-12-31T00:58:45.234Z,97997.66
2022-12-31T01:01:20.620Z,98005.22
2022-12-31T01:03:48.686Z,98006.75
2022-12-31T01:06:15.816Z,98012.63
2022-12-31T01:08:42.240Z,98015.00
2022-12-31T01:11:24.352Z,98019.94
2022-12-31T01:13:59.727Z,98031.78
2022-12-31T01:16:27.725Z,98033.66
2022-12-31T01:18:54.711Z,98042.06
2022-12-31T01:21:21.987Z,98047.13
2022-12-31T01:23:49.061Z,98046.25
2022-12-31T01:26:18.676Z,98048.69
2022-12-31T01:28:45.372Z,98055.56
2022-12-31T01:31:17.537Z,98052.91
2022-12-31T01:33:44.907Z,98054.50
2022-12-31T01:36:12.899Z,98056.19
2022-12-31T01:38:39.882Z,98066.38
2022-12-31T01:41:06.962Z,98071.59
2022-12-31T01:43:42.499Z,98067.16
2022-12-31T01:46:12.455Z,98067.13
2022-12-31T01:48:39.091Z,98074.84
2022-12-31T01:51:09.065Z,98072.13
2022-12-31T01:53:38.204Z,98074.56
2022-12-31T01:56:07.421Z,98084.00
2022-12-31T01:58:42.901Z,98079.66
2022-12-31T02:01:12.788Z,98082.97
2022-12-31T02:03:42.926Z,98077.75
2022-12-31T02:06:21.338Z,98085.50
2022-12-31T02:08:48.387Z,98082.59
2022-12-31T02:11:24.203Z,98086.31
2022-12-31T02:13:58.140Z,98079.56
2022-12-31T02:16:28.128Z,98087.28
2022-12-31T02:19:15.299Z,98085.59
2022-12-31T02:21:50.759Z,98084.81
2022-12-31T02:24:40.598Z,98089.00
2022-12-31T02:27:31.719Z,98097.50
2022-12-31T02:30:04.020Z,98094.03
2022-12-31T02:32:35.077Z,98087.75
2022-12-31T02:35:08.612Z,98085.13
2022-12-31T02:37:37.914Z,98082.72
2022-12-31T02:40:11.123Z,98081.16
2022-12-31T02:42:37.544Z,98087.88
2022-12-31T02:45:04.197Z,98092.41
2022-12-31T02:47:38.390Z,98086.38
2022-12-31T02:50:23.489Z,98097.66
2022-12-31T02:53:08.057Z,98100.19
2022-12-31T02:56:05.749Z,98101.19
2022-12-31T02:59:22.195Z,98096.91
2022-12-31T03:02:14.211Z,98101.78
2022-12-31T03:04:43.950Z,98105.41
2022-12-31T03:07:13.989Z,98108.81
2022-12-31T03:09:40.710Z,98110.41
2022-12-31T03:12:29.355Z,98108.69
2022-12-31T03:14:55.960Z,98122.41
2022-12-31T03:17:23.010Z,98122.34
2022-12-31T03:20:08.264Z,98115.66
2022-12-31T03:22:39.100Z,98115.00
2022-12-31T03:25:26.451Z,98114.91
2022-12-31T03:28:08.516Z,98110.41
2022-12-31T03:30:37.689Z,98112.22
2022-12-31T03:33:07.003Z,98116.44
2022-12-31T03:35:35.998Z,98111.34
2022-12-31T03:38:03.131Z,98117.25
2022-12-31T03:40:31.045Z,98113.66
2022-12-31T03:42:57.942Z,98113.69
2022-12-31T03:45:24.796Z,98117.91
2022-12-31T03:47:51.279Z,98111.94
2022-12-31T03:50:18.667Z,98115.34
2022-12-31T03:52:45.131Z,98107.44
2022-12-31T03:55:12.112Z,98115.19
2022-12-31T03:57:39.371Z,98117.88
2022-12-31T04:00:08.687Z,98114.25
2022-12-31T04:02:35.384Z,98118.53
2022-12-31T04:05:02.055Z,98123.78
2022-12-31T04:07:28.501Z,98120.28
2022-12-31T04:09:54.903Z,98108.22
2022-12-31T04:12:21.377Z,98115.06
2022-12-31T04:14:47.800Z,98120.19
2022-12-31T04:17:14.193Z,98120.19
2022-12-31T04:19:40.576Z,98128.72
2022-12-31T04:22:07.085Z,98127.81
2022-12-31T04:24:33.607Z,98133.72
2022-12-31T04:27:07.099Z,98130.31
2022-12-31T04:29:34.128Z,98127.69
2022-12-31T04:32:00.819Z,98139.72
2022-12-31T04:34:27.586Z,98134.44
2022-12-31T04:36:54.045Z,98130.09
2022-12-31T04:39:20.497Z,98148.84
2022-12-31T04:41:47.059Z,98142.56
2022-12-31T04:44:13.707Z,98144.44
2022-12-31T04:46:40.143Z,98140.84
2022-12-31T04:49:06.706Z,98150.31
2022-12-31T04:51:33.759Z,98146.75
2022-12-31T04:54:00.368Z,98153.38
2022-12-31T04:56:28.092Z,98133.47
2022-12-31T04:58:54.913Z,98140.03
2022-12-31T05:01:21.652Z,98148.78
2022-12-31T05:03:49.117Z,98151.34
2022-12-31T05:06:18.740Z,98152.06
2022-12-31T05:08:45.913Z,98151.94
2022-12-31T05:11:12.568Z,98144.09
2022-12-31T05:13:39.414Z,98149.25
2022-12-31T05:16:06.455Z,98148.38
2022-12-31T05:18:33.058Z,98147.38
2022-12-31T05:20:59.670Z,98155.16
2022-12-31T05:23:26.552Z,98155.34
2022-12-31T05:25:53.398Z,98152.63
2022-12-31T05:28:20.218Z,98150.78
2022-12-31T05:30:50.043Z,98155.94
2022-12-31T05:33:17.748Z,98167.00
2022-12-31T05:35:44.938Z,98165.25
2022-12-31T05:38:11.417Z,98164.38
2022-12-31T05:40:37.855Z,98166.91
2022-12-31T05:43:04.269Z,98168.50
2022-12-31T05:45:31.300Z,98170.97
2022-12-31T05:47:58.406Z,98167.56
2022-12-31T05:50:25.052Z,98167.56
2022-12-31T05:52:51.512Z,98165.69
2022-12-31T05:55:17.913Z,98175.66
2022-12-31T05:57:44.299Z,98175.59
2022-12-31T06:00:11.546Z,98174.72
2022-12-31T06:02:37.980Z,98181.44
2022-12-31T06:05:04.885Z,98172.63
2022-12-31T06:07:31.312Z,98167.28
2022-12-31T06:09:57.669Z,98175.09
2022-12-31T06:12:24.098Z,98188.00
2022-12-31T06:14:50.506Z,98187.16
2022-12-31T06:17:16.986Z,98186.28
2022-12-31T06:19:43.408Z,98185.38
2022-12-31T06:22:09.831Z,98182.06
2022-12-31T06:24:36.235Z,98192.41
2022-12-31T06:27:02.702Z,98189.69
2022-12-31T06:29:29.109Z,98195.81
2022-12-31T06:31:55.525Z,98188.19
2022-12-31T06:34:21.902Z,98183.06
2022-12-31T06:36:48.296Z,98185.81
2022-12-31T06:39:14.704Z,98185.75
2022-12-31T06:41:41.222Z,98189.25
2022-12-31T06:44:07.617Z,98186.56
2022-12-31T06:46:34.075Z,98185.00
2022-12-31T06:49:00.504Z,98193.50
2022-12-31T06:51:26.947Z,98192.50
2022-12-31T06:53:53.441Z,98196.03
2022-12-31T06:56:26.566Z,98193.28
2022-12-31T06:58:56.380Z,98198.41
2022-12-31T07:01:33.386Z,98202.66
2022-12-31T07:04:18.456Z,98202.66
2022-12-31T07:07:22.626Z,98205.22
2022-12-31T07:10:06.280Z,98205.31
2022-12-31T07:12:57.479Z,98211.09
2022-12-31T07:16:03.048Z,98210.09
2022-12-31T07:18:39.026Z,98208.44
2022-12-31T07:21:12.567Z,98217.91
2022-12-31T07:23:40.142Z,98215.28
2022-12-31T07:26:35.477Z,98221.38
2022-12-31T07:29:09.315Z,98219.72
2022-12-31T07:31:57.543Z,98225.72
2022-12-31T07:34:23.888Z,98225.63
2022-12-31T07:37:08.487Z,98227.25
2022-12-31T07:39:48.271Z,98234.88
2022-12-31T07:42:36.995Z,98237.41
2022-12-31T07:45:12.994Z,98235.81
2022-12-31T07:47:39.650Z,98239.06
2022-12-31T07:50:06.799Z,98245.84
2022-12-31T07:52:33.470Z,98240.75
2022-12-31T07:54:59.888Z,98246.81
2022-12-31T07:57:35.873Z,98259.50
2022-12-31T08:00:12.968Z,98256.91
2022-12-31T08:03:29.121Z,98266.75
2022-12-31T08:06:12.170Z,98260.94
2022-12-31T08:09:03.475Z,98269.69
2022-12-31T08:11:55.409Z,98272.75
2022-12-31T08:14:22.305Z,98280.19
2022-12-31T08:16:49.483Z,98281.84
2022-12-31T08:19:29.808Z,98280.69
2022-12-31T08:22:40.752Z,98291.97
2022-12-31T08:25:48.229Z,98296.84
2022-12-31T08:28:33.363Z,98291.88
2022-12-31T08:31:05.405Z,98290.50
2022-12-31T08:33:48.669Z,98290.22
2022-12-31T08:36:27.286Z,98294.19
2022-12-31T08:38:59.614Z,98290.75
2022-12-31T08:41:43.330Z,98290.97
2022-12-31T08:44:34.719Z,98291.53
2022-12-31T08:47:22.189Z,98291.59
2022-12-31T08:49:48.866Z,98285.78
2022-12-31T08:52:21.784Z,98288.59
2022-12-31T08:54:48.400Z,98289.06
2022-12-31T08:57:49.356Z,98294.25
2022-12-31T09:00:19.407Z,98297.25
2022-12-31T09:03:28.007Z,98299.97
2022-12-31T09:06:18.772Z,98312.25
2022-12-31T09:09:15.078Z,98309.31
2022-12-31T09:11:52.540Z,98312.53
2022-12-31T09:14:41.387Z,98320.56
2022-12-31T09:17:16.972Z,98315.50
2022-12-31T09:19:43.359Z,98329.34
2022-12-31T09:22:10.781Z,98323.91
2022-12-31T09:24:37.445Z,98330.91
2022-12-31T09:27:36.890Z,98333.63
2022-12-31T09:30:10.870Z,98332.41
2022-12-31T09:33:02.524Z,98331.69
2022-12-31T09:35:36.477Z,98339.31
2022-12-31T09:38:19.665Z,98340.75
2022-12-31T09:40:53.970Z,98350.22
2022-12-31T09:44:01.791Z,98347.03
2022-12-31T09:47:01.770Z,98348.66
2022-12-31T09:50:06.036Z,98357.34
2022-12-31T09:55:35.563Z,98360.41
2022-12-31T09:58:16.375Z,98359.38
2022-12-31T10:00:50.223Z,98366.28
2022-12-31T10:03:28.812Z,98360.06
2022-12-31T10:06:17.158Z,98354.88
2022-12-31T10:09:08.605Z,98348.00
2022-12-31T10:11:56.818Z,98344.66
2022-12-31T10:14:47.717Z,98338.56
2022-12-31T10:17:48.954Z,98342.50
2022-12-31T10:20:43.348Z,98342.31
2022-12-31T10:23:33.211Z,98337.13
2022-12-31T10:26:27.697Z,98341.28
2022-12-31T10:28:59.610Z,98337.09
2022-12-31T10:31:35.251Z,98342.28
2022-12-31T10:34:22.839Z,98338.13
2022-12-31T10:36:53.907Z,98332.16
2022-12-31T10:39:50.289Z,98333.81
2022-12-31T10:42:35.845Z,98339.44
2022-12-31T10:45:18.291Z,98336.84
2022-12-31T10:48:25.733Z,98336.06
2022-12-31T10:51:26.589Z,98342.78
2022-12-31T10:54:25.920Z,98344.81
2022-12-31T10:57:06.896Z,98345.38
2022-12-31T10:59:54.697Z,98339.91
2022-12-31T11:02:50.240Z,98348.00
2022-12-31T11:05:53.623Z,98341.69
2022-12-31T11:08:57.174Z,98334.69
2022-12-31T11:11:39.276Z,98341.41
2022-12-31T11:14:39.666Z,98337.88
2022-12-31T11:17:09.003Z,98329.19
2022-12-31T11:20:03.253Z,98328.16
2022-12-31T11:22:58.511Z,98322.88
2022-12-31T11:25:52.790Z,98321.59
2022-12-31T11:28:34.297Z,98326.56
2022-12-31T11:31:13.099Z,98317.00
2022-12-31T11:33:52.791Z,98311.50
2022-12-31T11:37:04.140Z,98315.13
2022-12-31T11:39:43.217Z,98310.19
2022-12-31T11:42:21.311Z,98320.97
2022-12-31T11:45:13.896Z,98327.16
2022-12-31T11:48:29.032Z,98324.63
2022-12-31T11:50:48.966Z,98319.44
2022-12-31T11:53:39.677Z,98326.88
2022-12-31T11:56:21.012Z,98336.31
2022-12-31T11:58:51.107Z,98327.31
2022-12-31T12:01:24.713Z,98328.44
2022-12-31T12:03:51.283Z,98332.66
2022-12-31T12:06:23.149Z,98333.56
2022-12-31T12:08:50.330Z,98326.63
2022-12-31T12:11:26.344Z,98323.06
2022-12-31T12:13:52.756Z,98316.91
2022-12-31T12:16:21.900Z,98315.56
2022-12-31T12:19:05.751Z,98308.63
2022-12-31T12:21:33.003Z,98310.00
2022-12-31T12:24:05.227Z,98308.56
2022-12-31T12:26:43.096Z,98305.88
2022-12-31T12:29:21.906Z,98307.50
2022-12-31T12:32:22.053Z,98311.31
2022-12-31T12:34:50.086Z,98306.69
2022-12-31T12:37:29.970Z,98298.59
2022-12-31T12:40:00.879Z,98301.28
2022-12-31T12:42:28.462Z,98304.34
2022-12-31T12:45:14.812Z,98306.94
2022-12-31T12:47:43.258Z,98309.38
2022-12-31T12:50:21.732Z,98302.56
2022-12-31T12:53:02.689Z,98297.63
2022-12-31T12:55:41.694Z,98298.53
2022-12-31T12:58:43.672Z,98298.91
2022-12-31T13:01:23.979Z,98305.09
2022-12-31T13:04:33.591Z,98298.75
2022-12-31T13:07:11.758Z,98293.25
2022-12-31T13:10:12.095Z,98298.31
2022-12-31T13:13:22.646Z,98301.91
2022-12-31T13:15:39.901Z,98308.91
2022-12-31T13:18:36.644Z,98307.50
2022-12-31T13:21:21.260Z,98310.75
2022-12-31T13:24:02.436Z,98306.13
2022-12-31T13:26:35.858Z,98303.56
2022-12-31T13:29:05.393Z,98290.44
2022-12-31T13:31:36.210Z,98285.59
2022-12-31T13:34:28.851Z,98285.69
2022-12-31T13:36:57.307Z,98289.06
2022-12-31T13:39:26.971Z,98282.94
2022-12-31T13:42:02.421Z,98283.41
2022-12-31T13:44:47.762Z,98281.19
2022-12-31T13:47:35.572Z,98275.13
2022-12-31T13:50:32.558Z,98273.63
2022-12-31T13:53:07.043Z,98278.44
2022-12-31T13:55:41.471Z,98277.28
2022-12-31T13:58:23.335Z,98274.16
2022-12-31T14:01:11.659Z,98269.81
2022-12-31T14:04:04.451Z,98278.91
2022-12-31T14:06:50.266Z,98285.09
2022-12-31T14:09:25.684Z,98293.78
2022-12-31T14:12:01.063Z,98293.25
2022-12-31T14:14:42.114Z,98297.59
2022-12-31T14:17:23.455Z,98296.03
2022-12-31T14:20:06.821Z,98310.13
2022-12-31T14:22:53.524Z,98315.81
2022-12-31T14:25:34.076Z,98322.13
2022-12-31T14:28:03.141Z,98317.88
2022-12-31T14:30:33.635Z,98310.22
2022-12-31T14:33:12.032Z,98311.69
2022-12-31T14:36:05.286Z,98310.41
2022-12-31T14:38:50.346Z,98324.19
2022-12-31T14:41:36.658Z,98316.69
2022-12-31T14:44:31.862Z,98324.84
2022-12-31T14:47:13.351Z,98321.47
2022-12-31T14:50:18.115Z,98325.78
2022-12-31T14:52:59.961Z,98320.78
2022-12-31T14:55:34.824Z,98324.28
2022-12-31T14:58:27.619Z,98322.66
2022-12-31T15:01:01.565Z,98321.78
2022-12-31T15:03:31.041Z,98322.59
2022-12-31T15:06:19.536Z,98334.09
2022-12-31T15:09:08.732Z,98338.31
2022-12-31T15:11:57.128Z,98337.47
2022-12-31T15:14:37.611Z,98334.22
2022-12-31T15:17:12.512Z,98336.97
2022-12-31T15:19:53.821Z,98335.59
2022-12-31T15:22:38.619Z,98333.28
2022-12-31T15:25:34.020Z,98336.03
2022-12-31T15:28:07.868Z,98332.97
2022-12-31T15:30:39.499Z,98328.69
2022-12-31T15:33:23.737Z,98330.72
2022-12-31T15:35:52.986Z,98332.03
2022-12-31T15:38:29.848Z,98332.03
2022-12-31T15:40:56.376Z,98340.81
2022-12-31T15:43:49.272Z,98335.78
2022-12-31T15:46:23.261Z,98337.63
2022-12-31T15:49:01.929Z,98337.06
2022-12-31T15:51:48.934Z,98335.97
2022-12-31T15:54:37.508Z,98334.34
2022-12-31T15:57:09.297Z,98335.19
2022-12-31T15:59:38.093Z,98325.63
2022-12-31T16:02:04.538Z,98328.00
2022-12-31T16:04:33.465Z,98340.34
2022-12-31T16:07:02.567Z,98340.28
2022-12-31T16:09:35.772Z,98337.28
2022-12-31T16:12:12.373Z,98332.16
2022-12-31T16:14:42.619Z,98328.78
2022-12-31T16:17:30.811Z,98329.75
2022-12-31T16:19:58.502Z,98335.66
2022-12-31T16:22:26.711Z,98332.41
2022-12-31T16:25:29.056Z,98337.63
2022-12-31T16:27:42.359Z,98335.03
2022-12-31T16:30:21.151Z,98346.34
2022-12-31T16:32:49.791Z,98344.72
2022-12-31T16:35:25.575Z,98340.50
2022-12-31T16:38:07.858Z,98339.59
2022-12-31T16:40:34.851Z,98345.94
2022-12-31T16:43:01.325Z,98343.34
2022-12-31T16:45:34.243Z,98348.59
2022-12-31T16:48:12.810Z,98339.06
2022-12-31T16:50:49.358Z,98332.41
2022-12-31T16:53:22.367Z,98329.09
2022-12-31T16:56:00.237Z,98341.28
2022-12-31T16:58:31.233Z,98341.44
2022-12-31T17:01:28.082Z,98342.16
2022-12-31T17:04:00.074Z,98336.91
2022-12-31T17:06:28.385Z,98349.19
2022-12-31T17:08:59.437Z,98350.00
2022-12-31T17:11:34.590Z,98347.59
2022-12-31T17:14:13.671Z,98345.00
2022-12-31T17:17:07.951Z,98350.25
2022-12-31T17:19:42.004Z,98355.50
2022-12-31T17:22:34.378Z,98349.44
2022-12-31T17:25:07.563Z,98346.16
2022-12-31T17:27:35.846Z,98345.34
2022-12-31T17:30:22.715Z,98345.63
2022-12-31T17:32:50.133Z,98351.66
2022-12-31T17:35:33.256Z,98354.19
2022-12-31T17:38:18.312Z,98367.06
2022-12-31T17:40:51.733Z,98344.47
2022-12-31T17:43:20.585Z,98346.94
2022-12-31T17:45:52.520Z,98350.44
2022-12-31T17:48:20.463Z,98350.44
2022-12-31T17:50:48.353Z,98356.59
2022-12-31T17:53:15.166Z,98350.38
2022-12-31T17:55:45.291Z,98360.91
2022-12-31T17:58:33.187Z,98368.78
2022-12-31T18:01:00.446Z,98353.06
2022-12-31T18:03:27.071Z,98356.72
2022-12-31T18:05:53.684Z,98363.44
2022-12-31T18:08:20.161Z,98361.88
2022-12-31T18:10:46.710Z,98362.59
2022-12-31T18:13:19.939Z,98361.88
2022-12-31T18:15:46.666Z,98358.56
2022-12-31T18:18:24.316Z,98368.03
2022-12-31T18:21:01.887Z,98368.13
2022-12-31T18:23:35.159Z,98363.94
2022-12-31T18:26:02.318Z,98374.38
2022-12-31T18:28:28.739Z,98372.78
2022-12-31T18:30:55.281Z,98380.56
2022-12-31T18:33:26.783Z,98373.75
2022-12-31T18:36:10.262Z,98380.63
2022-12-31T18:38:37.477Z,98377.31
2022-12-31T18:41:04.354Z,98381.81
2022-12-31T18:43:30.860Z,98381.09
2022-12-31T18:45:57.565Z,98381.06
2022-12-31T18:48:24.152Z,98386.41
2022-12-31T18:50:50.945Z,98386.41
2022-12-31T18:53:22.836Z,98377.91
2022-12-31T18:55:58.386Z,98389.59
2022-12-31T18:58:24.847Z,98385.41
2022-12-31T19:00:52.086Z,98386.28
2022-12-31T19:03:24.433Z,98381.44
2022-12-31T19:05:51.893Z,98385.97
2022-12-31T19:08:20.919Z,98384.44
2022-12-31T19:10:49.408Z,98383.59
2022-12-31T19:13:16.893Z,98385.22
2022-12-31T19:15:51.880Z,98384.19
2022-12-31T19:18:18.326Z,98376.50
2022-12-31T19:20:45.096Z,98380.16
2022-12-31T19:23:17.752Z,98378.31
2022-12-31T19:25:45.557Z,98383.50
2022-12-31T19:28:20.582Z,98390.44
2022-12-31T19:30:47.124Z,98381.03
2022-12-31T19:33:14.058Z,98391.19
2022-12-31T19:35:41.620Z,98396.44
2022-12-31T19:38:18.681Z,98391.38
2022-12-31T19:40:45.746Z,98394.16
2022-12-31T19:43:14.773Z,98392.50
2022-12-31T19:45:43.047Z,98391.81
2022-12-31T19:48:12.591Z,98383.81
2022-12-31T19:50:43.021Z,98379.63
2022-12-31T19:53:15.477Z,98380.56
2022-12-31T19:55:42.086Z,98381.22
2022-12-31T19:58:15.386Z,98380.56
2022-12-31T20:00:41.771Z,98384.97
2022-12-31T20:03:10.940Z,98383.38
2022-12-31T20:05:37.430Z,98390.03
2022-12-31T20:08:03.895Z,98388.97
2022-12-31T20:10:30.514Z,98393.09
2022-12-31T20:12:56.925Z,98399.91
2022-12-31T20:15:23.299Z,98397.31
2022-12-31T20:17:49.723Z,98412.59
2022-12-31T20:20:16.165Z,98403.84
2022-12-31T20:22:42.563Z,98418.66
2022-12-31T20:25:09.276Z,98416.00
2022-12-31T20:27:36.746Z,98420.13
2022-12-31T20:30:03.650Z,98415.88
2022-12-31T20:32:30.058Z,98422.72
2022-12-31T20:34:56.490Z,98417.59
2022-12-31T20:37:22.935Z,98427.06
2022-12-31T20:39:49.362Z,98427.00
2022-12-31T20:42:15.763Z,98427.69
2022-12-31T20:44:42.196Z,98431.19
2022-12-31T20:47:08.761Z,98426.06
2022-12-31T20:50:09.762Z,98425.03
2022-12-31T20:52:23.331Z,98422.16
2022-12-31T20:54:49.748Z,98416.34
2022-12-31T20:57:16.511Z,98416.41
2022-12-31T20:59:42.884Z,98413.94
2022-12-31T21:02:21.889Z,98424.47
2022-12-31T21:04:49.393Z,98423.59
2022-12-31T21:07:16.009Z,98424.53
2022-12-31T21:09:42.400Z,98409.00
2022-12-31T21:12:29.901Z,98418.72
2022-12-31T21:14:59.161Z,98414.38
2022-12-31T21:17:25.662Z,98416.13
2022-12-31T21:19:52.039Z,98418.72
2022-12-31T21:22:18.417Z,98428.19
2022-12-31T21:24:44.795Z,98423.81
2022-12-31T21:27:11.244Z,98422.13
2022-12-31T21:29:55.696Z,98424.88
2022-12-31T21:32:24.109Z,98417.06
2022-12-31T21:35:14.369Z,98422.84
2022-12-31T21:37:57.408Z,98419.53
2022-12-31T21:40:23.401Z,98421.06
2022-12-31T21:42:50.258Z,98423.75
2022-12-31T21:45:16.718Z,98422.97
2022-12-31T21:48:01.714Z,98426.28
2022-12-31T21:50:28.227Z,98433.13
2022-12-31T21:52:54.800Z,98438.38
2022-12-31T21:55:39.768Z,98446.38
2022-12-31T22:01:11.335Z,98447.25
2022-12-31T22:03:37.878Z,98444.59
2022-12-31T22:06:12.977Z,98458.34
2022-12-31T22:08:44.516Z,98454.88
2022-12-31T22:11:12.392Z,98449.75
2022-12-31T22:13:39.182Z,98448.06
2022-12-31T22:16:06.595Z,98460.88
2022-12-31T22:18:35.533Z,98463.41
2022-12-31T22:21:17.728Z,98466.06
2022-12-31T22:23:46.440Z,98460.88
2022-12-31T22:26:15.203Z,98466.88
2022-12-31T22:28:43.491Z,98468.69
2022-12-31T22:31:14.254Z,98473.03
2022-12-31T22:33:41.056Z,98469.53
2022-12-31T22:36:11.183Z,98476.28
2022-12-31T22:38:37.628Z,98476.28
2022-12-31T22:41:06.444Z,98481.53
2022-12-31T22:43:34.123Z,98484.94
2022-12-31T22:46:06.858Z,98480.56
2022-12-31T22:48:33.301Z,98479.88
2022-12-31T22:50:59.713Z,98488.47
2022-12-31T22:53:26.083Z,98480.69
2022-12-31T22:55:55.672Z,98481.47
2022-12-31T22:58:25.165Z,98478.09
2022-12-31T23:00:52.111Z,98472.06
2022-12-31T23:03:18.620Z,98480.41
2022-12-31T23:05:49.528Z,98479.56
2022-12-31T23:08:22.677Z,98485.06
2022-12-31T23:11:02.781Z,98491.22
2022-12-31T23:13:59.656Z,98487.75
2022-12-31T23:16:46.950Z,98481.13
2022-12-31T23:19:33.850Z,98490.34
2022-12-31T23:22:18.694Z,98492.28
2022-12-31T23:24:45.095Z,98495.75
2022-12-31T23:27:12.220Z,98493.44
2022-12-31T23:29:46.112Z,98502.03
2022-12-31T23:32:17.977Z,98502.31
2022-12-31T23:34:45.999Z,98497.03
2022-12-31T23:37:13.940Z,98498.09
2022-12-31T23:39:41.210Z,98503.47
2022-12-31T23:42:07.875Z,98498.41
2022-12-31T23:44:34.305Z,98506.94
2022-12-31T23:47:00.803Z,98496.03
2022-12-31T23:49:27.278Z,98499.47
2022-12-31T23:51:53.644Z,98503.09
2022-12-31T23:54:20.166Z,98504.63
2022-12-31T23:56:46.555Z,98506.41
2022-12-31T23:59:13.206Z,98509.03
